createdAt,value
2023-03-26T00:01:39.880Z,8.63
2023-03-26T00:04:08.754Z,8.60
2023-03-26T00:06:40.141Z,8.55
2023-03-26T00:09:12.424Z,8.51
2023-03-26T00:11:40.166Z,8.49
2023-03-26T00:14:13.219Z,8.49
2023-03-26T00:16:42.420Z,8.47
2023-03-26T00:19:12.196Z,8.44
2023-03-26T00:21:40.995Z,8.46
2023-03-26T00:24:14.194Z,8.47
2023-03-26T00:26:42.348Z,8.46
2023-03-26T00:29:12.128Z,8.45
2023-03-26T00:31:40.548Z,8.47
2023-03-26T00:34:10.056Z,8.49
2023-03-26T00:36:37.672Z,8.51
2023-03-26T00:39:05.801Z,8.56
2023-03-26T00:41:35.950Z,8.62
2023-03-26T00:44:03.804Z,8.67
2023-03-26T00:46:31.744Z,8.71
2023-03-26T00:49:02.832Z,8.76
2023-03-26T00:51:32.869Z,8.79
2023-03-26T00:54:01.105Z,8.83
2023-03-26T00:56:28.902Z,8.85
2023-03-26T00:58:57.226Z,8.87
2023-03-26T01:01:28.449Z,8.88
2023-03-26T01:06:33.824Z,8.88
2023-03-26T01:09:20.788Z,8.89
2023-03-26T01:11:49.651Z,8.89
2023-03-26T01:14:23.250Z,8.91
2023-03-26T01:16:55.314Z,8.92
2023-03-26T01:19:46.804Z,8.93
2023-03-26T01:22:18.945Z,8.95
2023-03-26T01:24:48.982Z,8.95
2023-03-26T01:27:50.336Z,8.92
2023-03-26T01:30:41.742Z,8.91
2023-03-26T01:33:38.774Z,8.89
2023-03-26T01:36:21.102Z,8.87
2023-03-26T01:39:15.917Z,8.84
2023-03-26T01:42:04.942Z,8.84
2023-03-26T01:44:40.981Z,8.83
2023-03-26T01:47:12.106Z,8.83
2023-03-26T01:49:40.015Z,8.82
2023-03-26T01:52:19.096Z,8.80
2023-03-26T01:54:47.166Z,8.79
2023-03-26T01:57:29.593Z,8.79
2023-03-26T02:00:25.700Z,8.78
2023-03-26T02:03:02.793Z,8.78
2023-03-26T02:05:45.901Z,8.75
2023-03-26T02:08:35.832Z,8.73
2023-03-26T02:11:11.496Z,8.72
2023-03-26T02:13:42.836Z,8.70
2023-03-26T02:16:15.788Z,8.65
2023-03-26T02:18:45.708Z,8.60
2023-03-26T02:21:19.728Z,8.56
2023-03-26T02:24:03.739Z,8.56
2023-03-26T02:26:37.200Z,8.54
2023-03-26T02:29:09.457Z,8.52
2023-03-26T02:31:37.726Z,8.50
2023-03-26T02:34:05.515Z,8.48
2023-03-26T02:36:35.443Z,8.46
2023-03-26T02:39:04.593Z,8.45
2023-03-26T02:41:36.533Z,8.43
2023-03-26T02:44:06.451Z,8.41
2023-03-26T02:46:38.734Z,8.36
2023-03-26T02:49:14.478Z,8.34
2023-03-26T02:51:43.007Z,8.32
2023-03-26T02:54:12.465Z,8.30
2023-03-26T02:56:42.890Z,8.27
2023-03-26T02:59:15.371Z,8.26
2023-03-26T03:01:43.898Z,8.24
2023-03-26T03:04:13.265Z,8.24
2023-03-26T03:06:41.571Z,8.22
2023-03-26T03:09:09.311Z,8.22
2023-03-26T03:11:38.694Z,8.17
2023-03-26T03:14:07.019Z,8.12
2023-03-26T03:16:34.980Z,8.08
2023-03-26T03:19:10.702Z,8.05
2023-03-26T03:21:40.452Z,7.96
2023-03-26T03:24:09.090Z,7.87
2023-03-26T03:26:40.852Z,7.83
2023-03-26T03:29:16.203Z,7.79
2023-03-26T03:31:44.563Z,7.72
2023-03-26T03:34:14.074Z,7.68
2023-03-26T03:36:45.465Z,7.60
2023-03-26T03:39:15.688Z,7.56
2023-03-26T03:41:44.505Z,7.51
2023-03-26T03:44:14.019Z,7.45
2023-03-26T03:46:41.709Z,7.37
2023-03-26T03:49:09.416Z,7.28
2023-03-26T03:51:38.455Z,7.22
2023-03-26T03:54:08.128Z,7.15
2023-03-26T03:56:46.751Z,7.10
2023-03-26T03:59:17.082Z,7.06
2023-03-26T04:01:47.951Z,6.99
2023-03-26T04:04:17.926Z,6.93
2023-03-26T04:06:53.439Z,6.86
2023-03-26T04:09:21.745Z,6.79
2023-03-26T04:11:50.526Z,6.73
2023-03-26T04:14:29.298Z,6.66
2023-03-26T04:17:01.682Z,6.60
2023-03-26T04:19:30.724Z,6.55
2023-03-26T04:22:00.113Z,6.50
2023-03-26T04:24:30.184Z,6.43
2023-03-26T04:27:16.575Z,6.37
2023-03-26T04:29:49.286Z,6.30
2023-03-26T04:32:30.227Z,6.24
2023-03-26T04:34:59.741Z,6.17
2023-03-26T04:40:20.030Z,6.11
2023-03-26T04:43:05.954Z,6.08
2023-03-26T04:45:52.671Z,6.03
2023-03-26T04:48:21.567Z,6.00
2023-03-26T04:50:49.855Z,5.98
2023-03-26T04:53:23.773Z,5.98
2023-03-26T04:56:25.405Z,5.98
2023-03-26T04:59:01.948Z,5.97
2023-03-26T05:01:31.654Z,6.05
2023-03-26T05:03:59.540Z,6.90
2023-03-26T05:06:28.212Z,8.21
2023-03-26T05:08:56.739Z,9.47
2023-03-26T05:11:32.473Z,10.52
2023-03-26T05:14:00.506Z,11.46
2023-03-26T05:16:29.579Z,12.48
2023-03-26T05:18:59.214Z,13.48
2023-03-26T05:21:28.905Z,14.37
2023-03-26T05:23:56.612Z,15.12
2023-03-26T05:26:25.602Z,15.75
2023-03-26T05:28:53.228Z,16.42
2023-03-26T05:31:23.175Z,17.10
2023-03-26T05:33:54.416Z,17.69
2023-03-26T05:36:24.537Z,18.20
2023-03-26T05:39:05.895Z,18.59
2023-03-26T05:41:47.348Z,18.81
2023-03-26T05:44:15.136Z,19.10
2023-03-26T05:46:43.014Z,19.14
2023-03-26T05:49:11.771Z,19.11
2023-03-26T05:51:39.693Z,19.30
2023-03-26T05:54:15.088Z,19.64
2023-03-26T05:56:47.915Z,19.81
2023-03-26T05:59:36.157Z,19.85
2023-03-26T06:02:23.343Z,19.99
2023-03-26T06:05:12.155Z,19.83
2023-03-26T06:07:54.072Z,19.64
2023-03-26T06:10:22.526Z,19.59
2023-03-26T06:12:50.365Z,19.61
2023-03-26T06:15:18.303Z,19.68
2023-03-26T06:17:50.721Z,19.57
2023-03-26T06:20:20.631Z,19.33
2023-03-26T06:22:50.335Z,19.05
2023-03-26T06:25:22.472Z,18.71
2023-03-26T06:27:55.076Z,18.28
2023-03-26T06:30:42.061Z,17.76
2023-03-26T06:33:29.727Z,16.96
2023-03-26T06:35:59.453Z,16.08
2023-03-26T06:38:27.461Z,15.18
2023-03-26T06:41:04.976Z,14.64
2023-03-26T06:43:40.179Z,14.23
2023-03-26T06:46:10.680Z,13.90
2023-03-26T06:48:59.068Z,13.67
2023-03-26T06:51:46.221Z,13.36
2023-03-26T06:54:18.904Z,13.02
2023-03-26T06:56:58.457Z,12.75
2023-03-26T06:59:44.395Z,12.45
2023-03-26T07:02:30.645Z,12.19
2023-03-26T07:05:17.450Z,12.00
2023-03-26T07:08:03.977Z,11.88
2023-03-26T07:10:50.260Z,11.83
2023-03-26T07:13:32.399Z,11.78
2023-03-26T07:16:01.981Z,11.65
2023-03-26T07:18:31.509Z,11.80
2023-03-26T07:21:00.520Z,12.16
2023-03-26T07:23:30.722Z,12.33
2023-03-26T07:26:14.770Z,12.45
2023-03-26T07:29:04.476Z,12.66
2023-03-26T07:31:51.210Z,12.97
2023-03-26T07:34:45.687Z,12.73
2023-03-26T07:37:36.123Z,12.61
2023-03-26T07:40:33.689Z,12.56
2023-03-26T07:43:08.772Z,12.73
2023-03-26T07:45:56.945Z,12.86
2023-03-26T07:48:43.146Z,13.12
2023-03-26T07:51:14.191Z,13.51
2023-03-26T07:53:50.505Z,13.96
2023-03-26T07:56:55.852Z,14.26
2023-03-26T08:00:00.403Z,14.53
2023-03-26T08:03:18.657Z,14.92
2023-03-26T08:06:30.033Z,15.26
2023-03-26T08:09:31.561Z,15.42
2023-03-26T08:12:36.839Z,15.33
2023-03-26T08:15:33.532Z,14.81
2023-03-26T08:18:35.178Z,14.65
2023-03-26T08:21:10.774Z,14.89
2023-03-26T08:24:15.983Z,14.94
2023-03-26T08:27:12.116Z,14.66
2023-03-26T08:30:02.601Z,14.65
2023-03-26T08:32:33.127Z,14.89
2023-03-26T08:35:00.726Z,14.87
2023-03-26T08:37:28.751Z,14.88
2023-03-26T08:39:57.041Z,14.93
2023-03-26T08:43:00.473Z,15.15
2023-03-26T08:45:50.612Z,15.29
2023-03-26T08:48:49.296Z,15.31
2023-03-26T08:51:51.263Z,15.21
2023-03-26T08:54:56.187Z,15.06
2023-03-26T08:58:16.768Z,14.84
2023-03-26T09:01:26.608Z,14.49
2023-03-26T09:04:46.269Z,14.27
2023-03-26T09:07:39.984Z,14.05
2023-03-26T09:10:28.458Z,13.70
2023-03-26T09:13:26.155Z,13.50
2023-03-26T09:16:26.837Z,13.32
2023-03-26T09:19:24.119Z,13.14
2023-03-26T09:22:16.079Z,12.96
2023-03-26T09:25:10.042Z,12.86
2023-03-26T09:28:12.330Z,12.74
2023-03-26T09:31:00.781Z,12.80
2023-03-26T09:33:53.348Z,13.29
2023-03-26T09:36:47.902Z,13.77
2023-03-26T09:39:52.653Z,14.18
2023-03-26T09:42:56.484Z,14.48
2023-03-26T09:45:38.031Z,14.36
2023-03-26T09:51:34.035Z,13.81
2023-03-26T09:54:51.178Z,13.53
2023-03-26T09:58:03.373Z,13.74
2023-03-26T10:00:48.690Z,14.36
2023-03-26T10:04:12.382Z,14.88
2023-03-26T10:06:48.360Z,15.11
2023-03-26T10:09:40.365Z,15.36
2023-03-26T10:12:22.557Z,15.18
2023-03-26T10:15:33.298Z,15.03
2023-03-26T10:18:28.108Z,14.79
2023-03-26T10:21:05.141Z,14.52
2023-03-26T10:24:13.797Z,14.42
2023-03-26T10:27:09.033Z,14.45
2023-03-26T10:29:52.954Z,14.82
2023-03-26T10:32:39.027Z,15.27
2023-03-26T10:35:29.446Z,15.75
2023-03-26T10:38:36.366Z,15.98
2023-03-26T10:41:17.211Z,16.01
2023-03-26T10:44:22.432Z,15.77
2023-03-26T10:47:04.108Z,15.42
2023-03-26T10:50:03.290Z,15.13
2023-03-26T10:52:57.912Z,14.93
2023-03-26T10:55:40.397Z,14.60
2023-03-26T10:58:16.507Z,14.29
2023-03-26T11:00:49.578Z,14.14
2023-03-26T11:03:54.306Z,13.99
2023-03-26T11:06:40.974Z,13.90
2023-03-26T11:09:23.889Z,13.85
2023-03-26T11:12:26.288Z,14.00
2023-03-26T11:15:27.923Z,14.34
2023-03-26T11:18:35.115Z,14.71
2023-03-26T11:21:36.113Z,14.98
2023-03-26T11:24:39.962Z,15.27
2023-03-26T11:27:26.552Z,15.56
2023-03-26T11:30:19.779Z,15.80
2023-03-26T11:32:55.323Z,15.83
2023-03-26T11:35:41.081Z,15.88
2023-03-26T11:38:14.003Z,15.79
2023-03-26T11:40:49.263Z,15.71
2023-03-26T11:43:24.535Z,15.69
2023-03-26T11:45:53.569Z,15.57
2023-03-26T11:48:29.952Z,15.43
2023-03-26T11:51:06.821Z,15.30
2023-03-26T11:53:39.617Z,15.40
2023-03-26T11:56:15.554Z,15.37
2023-03-26T11:59:16.917Z,15.19
2023-03-26T12:01:58.207Z,15.12
2023-03-26T12:04:40.614Z,15.13
2023-03-26T12:07:33.014Z,15.07
2023-03-26T12:10:18.179Z,14.96
2023-03-26T12:12:40.872Z,14.70
2023-03-26T12:15:19.110Z,14.55
2023-03-26T12:17:55.809Z,14.41
2023-03-26T12:20:33.003Z,14.48
2023-03-26T12:23:06.207Z,14.48
2023-03-26T12:25:38.712Z,14.41
2023-03-26T12:28:19.399Z,14.31
2023-03-26T12:31:03.465Z,14.34
2023-03-26T12:33:34.204Z,14.53
2023-03-26T12:36:24.197Z,14.72
2023-03-26T12:39:16.748Z,14.95
2023-03-26T12:43:19.841Z,15.13
2023-03-26T12:44:55.667Z,15.23
2023-03-26T12:47:59.993Z,15.39
2023-03-26T12:49:55.847Z,15.46
2023-03-26T12:53:02.110Z,15.20
2023-03-26T12:55:41.752Z,14.93
2023-03-26T12:58:20.890Z,14.64
2023-03-26T13:01:06.202Z,14.57
2023-03-26T13:03:50.575Z,14.69
2023-03-26T13:07:01.971Z,14.77
2023-03-26T13:09:47.406Z,14.84
2023-03-26T13:12:33.683Z,14.85
2023-03-26T13:15:32.597Z,14.89
2023-03-26T13:18:43.968Z,15.03
2023-03-26T13:21:19.906Z,15.18
2023-03-26T13:24:11.072Z,15.13
2023-03-26T13:26:55.898Z,15.08
2023-03-26T13:29:56.078Z,15.13
2023-03-26T13:32:38.198Z,15.02
2023-03-26T13:35:37.454Z,15.03
2023-03-26T13:38:25.495Z,15.03
2023-03-26T13:41:05.080Z,14.98
2023-03-26T13:43:44.513Z,14.89
2023-03-26T13:46:35.383Z,14.83
2023-03-26T13:49:13.154Z,14.73
2023-03-26T13:51:57.957Z,14.68
2023-03-26T13:54:33.888Z,14.80
2023-03-26T13:57:13.274Z,14.89
2023-03-26T14:00:01.536Z,14.98
2023-03-26T14:02:59.083Z,15.11
2023-03-26T14:05:41.301Z,15.13
2023-03-26T14:08:23.802Z,15.19
2023-03-26T14:11:18.272Z,15.27
2023-03-26T14:14:13.757Z,15.34
2023-03-26T14:16:49.252Z,15.35
2023-03-26T14:19:37.129Z,15.09
2023-03-26T14:22:33.261Z,14.90
2023-03-26T14:25:16.398Z,14.65
2023-03-26T14:28:07.804Z,14.45
2023-03-26T14:30:55.139Z,14.29
2023-03-26T14:34:04.359Z,14.09
2023-03-26T14:37:04.377Z,13.92
2023-03-26T14:40:09.865Z,13.86
2023-03-26T14:43:07.628Z,13.84
2023-03-26T14:45:43.505Z,13.89
2023-03-26T14:49:04.021Z,13.92
2023-03-26T14:52:15.491Z,13.84
2023-03-26T14:54:52.055Z,13.88
2023-03-26T14:57:25.349Z,13.92
2023-03-26T15:00:38.358Z,13.94
2023-03-26T15:03:28.326Z,13.91
2023-03-26T15:06:09.891Z,13.92
2023-03-26T15:09:02.658Z,13.78
2023-03-26T15:11:55.580Z,13.64
2023-03-26T15:14:53.352Z,13.53
2023-03-26T15:17:43.194Z,13.48
2023-03-26T15:20:43.256Z,13.46
2023-03-26T15:23:42.576Z,13.48
2023-03-26T15:26:46.494Z,13.49
2023-03-26T15:29:55.038Z,13.44
2023-03-26T15:33:16.173Z,13.41
2023-03-26T15:36:25.859Z,13.28
2023-03-26T15:39:18.997Z,13.15
2023-03-26T15:42:14.981Z,13.10
2023-03-26T15:44:54.121Z,13.08
2023-03-26T15:47:51.899Z,13.09
2023-03-26T15:50:57.782Z,13.06
2023-03-26T15:53:53.728Z,13.01
2023-03-26T15:57:00.397Z,13.00
2023-03-26T15:59:42.668Z,12.95
2023-03-26T16:02:27.430Z,12.85
2023-03-26T16:05:33.829Z,12.79
2023-03-26T16:08:23.394Z,12.73
2023-03-26T16:10:55.597Z,12.65
2023-03-26T16:13:38.130Z,12.56
2023-03-26T16:16:22.510Z,12.50
2023-03-26T16:19:20.685Z,12.44
2023-03-26T16:22:09.412Z,12.35
2023-03-26T16:24:45.963Z,12.26
2023-03-26T16:27:28.260Z,12.18
2023-03-26T16:30:08.366Z,12.12
2023-03-26T16:32:55.560Z,12.07
2023-03-26T16:35:48.359Z,12.02
2023-03-26T16:38:18.639Z,12.01
2023-03-26T16:41:06.879Z,11.96
2023-03-26T16:44:04.890Z,11.91
2023-03-26T16:47:10.024Z,11.86
2023-03-26T16:50:18.208Z,11.81
2023-03-26T16:53:12.975Z,11.76
2023-03-26T16:56:20.631Z,11.67
2023-03-26T16:58:57.782Z,11.59
2023-03-26T17:01:48.419Z,11.47
2023-03-26T17:04:25.200Z,11.40
2023-03-26T17:07:08.529Z,11.34
2023-03-26T17:09:53.861Z,11.25
2023-03-26T17:13:01.015Z,11.09
2023-03-26T17:15:49.389Z,10.96
2023-03-26T17:21:57.110Z,10.75
2023-03-26T17:24:52.916Z,10.62
2023-03-26T17:28:17.569Z,10.51
2023-03-26T17:31:25.885Z,10.36
2023-03-26T17:33:54.009Z,10.26
2023-03-26T17:36:42.016Z,10.15
2023-03-26T17:39:49.022Z,10.08
2023-03-26T17:42:32.481Z,9.95
2023-03-26T17:45:21.588Z,9.82
2023-03-26T17:48:16.988Z,9.71
2023-03-26T17:50:55.501Z,9.64
2023-03-26T17:53:32.676Z,9.58
2023-03-26T17:56:05.140Z,9.54
2023-03-26T17:58:44.004Z,9.53
2023-03-26T18:01:29.470Z,9.52
2023-03-26T18:04:02.083Z,9.50
2023-03-26T18:06:47.395Z,9.48
2023-03-26T18:10:14.180Z,9.46
2023-03-26T18:13:09.988Z,9.43
2023-03-26T18:15:48.713Z,9.38
2023-03-26T18:18:27.957Z,9.35
2023-03-26T18:21:03.499Z,9.26
2023-03-26T18:23:43.408Z,9.21
2023-03-26T18:26:40.574Z,9.13
2023-03-26T18:29:19.109Z,8.99
2023-03-26T18:31:51.709Z,8.89
2023-03-26T18:34:23.813Z,8.84
2023-03-26T18:37:05.942Z,8.82
2023-03-26T18:39:33.744Z,8.79
2023-03-26T18:42:01.731Z,8.76
2023-03-26T18:44:32.448Z,8.76
2023-03-26T18:47:09.220Z,8.78
2023-03-26T18:49:37.391Z,8.81
2023-03-26T18:52:06.130Z,8.83
2023-03-26T18:54:38.058Z,8.84
2023-03-26T18:57:25.701Z,8.86
2023-03-26T19:00:00.479Z,8.88
2023-03-26T19:02:29.310Z,8.90
2023-03-26T19:04:57.617Z,8.91
2023-03-26T19:07:27.690Z,8.89
2023-03-26T19:10:00.867Z,8.87
2023-03-26T19:12:36.028Z,8.86
2023-03-26T19:15:08.611Z,8.81
2023-03-26T19:17:48.604Z,8.78
2023-03-26T19:20:24.106Z,8.73
2023-03-26T19:22:52.171Z,8.64
2023-03-26T19:25:31.516Z,8.55
2023-03-26T19:28:02.610Z,8.49
2023-03-26T19:30:33.902Z,8.45
2023-03-26T19:33:17.763Z,8.39
2023-03-26T19:36:05.583Z,8.33
2023-03-26T19:38:53.062Z,8.28
2023-03-26T19:41:28.283Z,8.21
2023-03-26T19:44:01.449Z,8.09
2023-03-26T19:46:34.154Z,7.92
2023-03-26T19:49:04.887Z,7.71
2023-03-26T19:51:38.509Z,7.57
2023-03-26T19:54:15.586Z,7.45
2023-03-26T19:56:44.065Z,7.33
2023-03-26T19:59:14.672Z,7.21
2023-03-26T20:01:42.952Z,7.10
2023-03-26T20:04:13.087Z,6.98
2023-03-26T20:06:44.147Z,6.87
2023-03-26T20:09:13.893Z,6.78
2023-03-26T20:11:42.050Z,6.68
2023-03-26T20:14:17.355Z,6.62
2023-03-26T20:16:47.118Z,6.55
2023-03-26T20:19:15.476Z,6.42
2023-03-26T20:21:44.457Z,6.33
2023-03-26T20:24:16.341Z,6.26
2023-03-26T20:26:45.803Z,6.17
2023-03-26T20:29:14.902Z,6.11
2023-03-26T20:31:43.790Z,6.05
2023-03-26T20:34:16.680Z,5.99
2023-03-26T20:36:45.832Z,5.94
2023-03-26T20:39:14.349Z,5.88
2023-03-26T20:41:46.244Z,5.80
2023-03-26T20:44:18.541Z,5.72
2023-03-26T20:46:48.294Z,5.64
2023-03-26T20:49:17.163Z,5.57
2023-03-26T20:51:46.218Z,5.52
2023-03-26T20:54:21.687Z,5.45
2023-03-26T20:56:50.203Z,5.42
2023-03-26T20:59:25.689Z,5.37
2023-03-26T21:01:54.218Z,5.36
2023-03-26T21:04:22.341Z,5.33
2023-03-26T21:06:51.880Z,5.27
2023-03-26T21:09:24.676Z,5.24
2023-03-26T21:12:00.844Z,5.21
2023-03-26T21:14:41.949Z,5.17
2023-03-26T21:17:16.845Z,5.13
2023-03-26T21:19:45.666Z,5.08
2023-03-26T21:22:39.923Z,5.02
2023-03-26T21:25:34.537Z,4.99
2023-03-26T21:28:35.764Z,4.95
2023-03-26T21:30:58.833Z,4.91
2023-03-26T21:33:27.968Z,4.88
2023-03-26T21:35:56.747Z,4.87
2023-03-26T21:38:25.520Z,4.84
2023-03-26T21:40:58.840Z,4.79
2023-03-26T21:43:25.689Z,4.74
2023-03-26T21:45:54.580Z,4.66
2023-03-26T21:48:23.307Z,4.61
2023-03-26T21:50:51.593Z,4.55
2023-03-26T21:53:21.561Z,4.51
2023-03-26T21:55:55.416Z,4.49
2023-03-26T21:58:52.679Z,4.45
2023-03-26T22:01:31.771Z,4.43
2023-03-26T22:04:11.156Z,4.41
2023-03-26T22:06:47.486Z,4.37
2023-03-26T22:09:18.516Z,4.19
2023-03-26T22:11:45.821Z,4.34
2023-03-26T22:14:13.872Z,4.32
2023-03-26T22:16:41.658Z,4.29
2023-03-26T22:19:10.332Z,4.26
2023-03-26T22:21:38.351Z,4.21
2023-03-26T22:24:07.022Z,4.15
2023-03-26T22:26:37.084Z,4.13
2023-03-26T22:29:07.091Z,4.11
2023-03-26T22:31:40.256Z,4.10
2023-03-26T22:34:08.670Z,4.09
2023-03-26T22:36:38.387Z,4.06
2023-03-26T22:39:06.577Z,4.05
2023-03-26T22:41:34.320Z,4.08
2023-03-26T22:44:18.557Z,4.07
2023-03-26T22:46:32.322Z,4.06
2023-03-26T22:48:59.994Z,4.03
2023-03-26T22:51:29.204Z,4.03
2023-03-26T22:53:57.367Z,4.01
2023-03-26T22:56:25.199Z,4.00
2023-03-26T22:58:53.016Z,3.99
2023-03-26T23:01:24.368Z,3.99
2023-03-26T23:03:52.164Z,3.97
2023-03-26T23:06:20.970Z,3.94
2023-03-26T23:08:49.208Z,3.89
2023-03-26T23:11:20.969Z,3.83
2023-03-26T23:13:49.452Z,3.79
2023-03-26T23:16:17.782Z,3.76
2023-03-26T23:18:46.147Z,3.74
2023-03-26T23:21:17.779Z,3.68
2023-03-26T23:23:46.400Z,3.72
2023-03-26T23:26:15.113Z,3.70
2023-03-26T23:28:43.081Z,3.69
2023-03-26T23:31:12.628Z,3.70
2023-03-26T23:33:43.763Z,3.68
2023-03-26T23:36:16.680Z,3.69
2023-03-26T23:38:49.229Z,3.67
2023-03-26T23:41:21.128Z,3.66
2023-03-26T23:43:54.696Z,3.63
2023-03-26T23:46:23.434Z,3.62
2023-03-26T23:48:52.163Z,3.62
2023-03-26T23:51:21.137Z,3.62
2023-03-26T23:53:49.056Z,3.62
2023-03-26T23:56:17.552Z,3.61
2023-03-26T23:58:45.301Z,3.60
